sensor_id;sensor_type;location;lat;lon;timestamp;P1;durP1;ratioP1;P2;durP2;ratioP2
60999;SDS011;46879;45.658;11.814;2022-12-07T00:00:25;12.60;;;6.00;;
60999;SDS011;46879;45.658;11.814;2022-12-07T00:05:25;7.95;;;6.28;;
60999;SDS011;46879;45.658;11.814;2022-12-07T00:10:26;11.00;;;6.75;;
60999;SDS011;46879;45.658;11.814;2022-12-07T00:15:27;7.13;;;6.18;;
60999;SDS011;46879;45.658;11.814;2022-12-07T00:20:27;9.73;;;6.68;;
60999;SDS011;46879;45.658;11.814;2022-12-07T00:25:28;15.77;;;6.45;;
60999;SDS011;46879;45.658;11.814;2022-12-07T00:30:30;9.43;;;6.22;;
60999;SDS011;46879;45.658;11.814;2022-12-07T00:35:31;7.18;;;5.70;;
60999;SDS011;46879;45.658;11.814;2022-12-07T00:40:31;9.57;;;6.05;;
60999;SDS011;46879;45.658;11.814;2022-12-07T00:45:32;9.93;;;6.38;;
60999;SDS011;46879;45.658;11.814;2022-12-07T00:50:32;11.65;;;6.05;;
60999;SDS011;46879;45.658;11.814;2022-12-07T00:55:33;7.38;;;5.70;;
60999;SDS011;46879;45.658;11.814;2022-12-07T01:00:37;9.00;;;5.93;;
60999;SDS011;46879;45.658;11.814;2022-12-07T01:05:40;10.98;;;6.00;;
60999;SDS011;46879;45.658;11.814;2022-12-07T01:10:48;10.05;;;6.00;;
60999;SDS011;46879;45.658;11.814;2022-12-07T01:15:49;7.05;;;6.18;;
60999;SDS011;46879;45.658;11.814;2022-12-07T01:21:03;7.30;;;5.85;;
60999;SDS011;46879;45.658;11.814;2022-12-07T01:26:11;9.20;;;6.68;;
60999;SDS011;46879;45.658;11.814;2022-12-07T01:31:16;9.40;;;7.07;;
60999;SDS011;46879;45.658;11.814;2022-12-07T01:36:22;8.05;;;6.13;;
60999;SDS011;46879;45.658;11.814;2022-12-07T01:41:26;8.52;;;6.00;;
60999;SDS011;46879;45.658;11.814;2022-12-07T01:46:30;8.77;;;6.43;;
60999;SDS011;46879;45.658;11.814;2022-12-07T01:51:30;9.20;;;6.18;;
60999;SDS011;46879;45.658;11.814;2022-12-07T01:56:31;8.13;;;6.20;;
60999;SDS011;46879;45.658;11.814;2022-12-07T02:01:32;8.73;;;5.78;;
60999;SDS011;46879;45.658;11.814;2022-12-07T02:06:32;10.10;;;5.82;;
60999;SDS011;46879;45.658;11.814;2022-12-07T02:11:35;8.50;;;5.70;;
60999;SDS011;46879;45.658;11.814;2022-12-07T02:22:13;8.95;;;5.80;;
60999;SDS011;46879;45.658;11.814;2022-12-07T02:32:48;7.10;;;5.45;;
60999;SDS011;46879;45.658;11.814;2022-12-07T02:43:35;7.63;;;5.47;;
60999;SDS011;46879;45.658;11.814;2022-12-07T02:48:43;7.57;;;5.40;;
60999;SDS011;46879;45.658;11.814;2022-12-07T02:53:45;6.40;;;4.93;;
60999;SDS011;46879;45.658;11.814;2022-12-07T03:09:59;7.07;;;5.68;;
60999;SDS011;46879;45.658;11.814;2022-12-07T03:15:18;10.13;;;6.10;;
60999;SDS011;46879;45.658;11.814;2022-12-07T03:20:26;7.82;;;5.55;;
60999;SDS011;46879;45.658;11.814;2022-12-07T03:25:29;8.30;;;5.03;;
60999;SDS011;46879;45.658;11.814;2022-12-07T03:30:32;7.05;;;5.82;;
60999;SDS011;46879;45.658;11.814;2022-12-07T03:35:43;6.70;;;5.40;;
60999;SDS011;46879;45.658;11.814;2022-12-07T03:51:20;7.50;;;5.57;;
60999;SDS011;46879;45.658;11.814;2022-12-07T03:56:28;5.85;;;4.95;;
60999;SDS011;46879;45.658;11.814;2022-12-07T04:01:30;6.78;;;5.20;;
60999;SDS011;46879;45.658;11.814;2022-12-07T04:06:32;6.78;;;5.20;;
60999;SDS011;46879;45.658;11.814;2022-12-07T04:11:32;6.25;;;5.22;;
60999;SDS011;46879;45.658;11.814;2022-12-07T04:16:33;8.77;;;5.10;;
60999;SDS011;46879;45.658;11.814;2022-12-07T04:21:33;7.28;;;5.60;;
60999;SDS011;46879;45.658;11.814;2022-12-07T04:26:34;4.97;;;4.47;;
60999;SDS011;46879;45.658;11.814;2022-12-07T04:31:35;8.23;;;5.15;;
60999;SDS011;46879;45.658;11.814;2022-12-07T04:36:36;5.57;;;4.70;;
60999;SDS011;46879;45.658;11.814;2022-12-07T04:41:38;5.10;;;4.57;;
60999;SDS011;46879;45.658;11.814;2022-12-07T04:46:38;6.50;;;5.03;;
60999;SDS011;46879;45.658;11.814;2022-12-07T04:51:39;7.45;;;4.80;;
60999;SDS011;46879;45.658;11.814;2022-12-07T04:56:41;5.93;;;5.22;;
60999;SDS011;46879;45.658;11.814;2022-12-07T05:01:42;5.63;;;5.03;;
60999;SDS011;46879;45.658;11.814;2022-12-07T05:06:43;5.05;;;4.55;;
60999;SDS011;46879;45.658;11.814;2022-12-07T05:11:44;5.22;;;4.65;;
60999;SDS011;46879;45.658;11.814;2022-12-07T05:16:45;6.38;;;4.93;;
60999;SDS011;46879;45.658;11.814;2022-12-07T05:21:49;5.38;;;4.43;;
60999;SDS011;46879;45.658;11.814;2022-12-07T05:26:50;5.65;;;4.53;;
60999;SDS011;46879;45.658;11.814;2022-12-07T05:31:50;4.80;;;4.07;;
60999;SDS011;46879;45.658;11.814;2022-12-07T05:36:51;5.70;;;5.10;;
60999;SDS011;46879;45.658;11.814;2022-12-07T05:41:51;5.70;;;4.65;;
60999;SDS011;46879;45.658;11.814;2022-12-07T05:52:12;16.70;;;5.70;;
60999;SDS011;46879;45.658;11.814;2022-12-07T05:57:12;8.48;;;5.25;;
60999;SDS011;46879;45.658;11.814;2022-12-07T06:02:14;8.85;;;6.00;;
60999;SDS011;46879;45.658;11.814;2022-12-07T06:07:15;7.13;;;5.40;;
60999;SDS011;46879;45.658;11.814;2022-12-07T06:12:16;8.23;;;5.68;;
60999;SDS011;46879;45.658;11.814;2022-12-07T06:17:35;8.13;;;5.30;;
60999;SDS011;46879;45.658;11.814;2022-12-07T06:22:36;13.88;;;6.28;;
60999;SDS011;46879;45.658;11.814;2022-12-07T06:27:37;9.23;;;5.78;;
60999;SDS011;46879;45.658;11.814;2022-12-07T06:32:37;12.63;;;5.55;;
60999;SDS011;46879;45.658;11.814;2022-12-07T06:37:38;8.25;;;5.45;;
60999;SDS011;46879;45.658;11.814;2022-12-07T06:42:38;7.53;;;5.35;;
60999;SDS011;46879;45.658;11.814;2022-12-07T06:47:39;6.57;;;5.13;;
60999;SDS011;46879;45.658;11.814;2022-12-07T06:52:40;8.32;;;5.57;;
60999;SDS011;46879;45.658;11.814;2022-12-07T06:57:40;8.65;;;4.88;;
60999;SDS011;46879;45.658;11.814;2022-12-07T07:02:41;5.32;;;4.72;;
60999;SDS011;46879;45.658;11.814;2022-12-07T07:07:41;7.10;;;5.05;;
60999;SDS011;46879;45.658;11.814;2022-12-07T07:12:42;6.32;;;4.53;;
60999;SDS011;46879;45.658;11.814;2022-12-07T07:17:43;10.20;;;4.90;;
60999;SDS011;46879;45.658;11.814;2022-12-07T07:22:43;9.43;;;5.53;;
60999;SDS011;46879;45.658;11.814;2022-12-07T07:27:44;12.07;;;4.75;;
60999;SDS011;46879;45.658;11.814;2022-12-07T07:32:44;11.88;;;4.75;;
60999;SDS011;46879;45.658;11.814;2022-12-07T07:37:45;14.10;;;4.95;;
60999;SDS011;46879;45.658;11.814;2022-12-07T07:42:52;6.30;;;4.43;;
60999;SDS011;46879;45.658;11.814;2022-12-07T07:47:54;9.57;;;4.70;;
60999;SDS011;46879;45.658;11.814;2022-12-07T07:52:56;7.30;;;4.30;;
60999;SDS011;46879;45.658;11.814;2022-12-07T07:57:57;7.90;;;4.20;;
60999;SDS011;46879;45.658;11.814;2022-12-07T08:02:58;8.50;;;4.47;;
60999;SDS011;46879;45.658;11.814;2022-12-07T08:07:59;11.95;;;4.32;;
60999;SDS011;46879;45.658;11.814;2022-12-07T08:12:59;5.45;;;4.05;;
60999;SDS011;46879;45.658;11.814;2022-12-07T08:18:13;12.20;;;4.10;;
60999;SDS011;46879;45.658;11.814;2022-12-07T08:23:15;7.15;;;4.07;;
60999;SDS011;46879;45.658;11.814;2022-12-07T08:28:16;8.90;;;4.22;;
60999;SDS011;46879;45.658;11.814;2022-12-07T08:33:17;11.18;;;4.15;;
60999;SDS011;46879;45.658;11.814;2022-12-07T08:38:17;6.93;;;4.60;;
60999;SDS011;46879;45.658;11.814;2022-12-07T08:43:18;6.05;;;4.60;;
60999;SDS011;46879;45.658;11.814;2022-12-07T08:48:19;6.07;;;4.68;;
60999;SDS011;46879;45.658;11.814;2022-12-07T08:53:21;8.35;;;4.60;;
60999;SDS011;46879;45.658;11.814;2022-12-07T08:58:22;6.60;;;4.35;;
60999;SDS011;46879;45.658;11.814;2022-12-07T09:03:23;6.18;;;4.30;;
60999;SDS011;46879;45.658;11.814;2022-12-07T09:08:25;7.38;;;4.47;;
60999;SDS011;46879;45.658;11.814;2022-12-07T09:13:33;6.68;;;4.25;;
60999;SDS011;46879;45.658;11.814;2022-12-07T09:18:33;6.43;;;4.15;;
60999;SDS011;46879;45.658;11.814;2022-12-07T09:23:34;6.13;;;4.07;;
60999;SDS011;46879;45.658;11.814;2022-12-07T09:28:34;7.28;;;4.50;;
60999;SDS011;46879;45.658;11.814;2022-12-07T09:33:35;10.60;;;4.07;;
60999;SDS011;46879;45.658;11.814;2022-12-07T09:38:35;5.47;;;4.43;;
60999;SDS011;46879;45.658;11.814;2022-12-07T09:43:36;10.40;;;4.47;;
60999;SDS011;46879;45.658;11.814;2022-12-07T09:48:39;5.60;;;3.83;;
60999;SDS011;46879;45.658;11.814;2022-12-07T09:53:40;6.60;;;4.10;;
60999;SDS011;46879;45.658;11.814;2022-12-07T09:58:42;5.25;;;4.05;;
60999;SDS011;46879;45.658;11.814;2022-12-07T10:09:25;6.75;;;4.18;;
60999;SDS011;46879;45.658;11.814;2022-12-07T10:14:30;5.53;;;4.20;;
60999;SDS011;46879;45.658;11.814;2022-12-07T10:19:33;6.70;;;4.20;;
60999;SDS011;46879;45.658;11.814;2022-12-07T10:24:34;6.00;;;3.50;;
60999;SDS011;46879;45.658;11.814;2022-12-07T10:29:36;6.13;;;4.13;;
60999;SDS011;46879;45.658;11.814;2022-12-07T10:34:38;8.50;;;4.22;;
60999;SDS011;46879;45.658;11.814;2022-12-07T10:39:48;8.77;;;4.32;;
60999;SDS011;46879;45.658;11.814;2022-12-07T10:45:14;4.70;;;3.78;;
60999;SDS011;46879;45.658;11.814;2022-12-07T11:17:56;5.97;;;3.92;;
60999;SDS011;46879;45.658;11.814;2022-12-07T11:28:58;5.68;;;4.20;;
60999;SDS011;46879;45.658;11.814;2022-12-07T11:40:33;5.38;;;4.03;;
60999;SDS011;46879;45.658;11.814;2022-12-07T11:45:37;6.53;;;3.53;;
60999;SDS011;46879;45.658;11.814;2022-12-07T11:50:43;5.10;;;3.90;;
60999;SDS011;46879;45.658;11.814;2022-12-07T12:01:01;4.65;;;3.78;;
60999;SDS011;46879;45.658;11.814;2022-12-07T12:06:23;5.07;;;3.80;;
60999;SDS011;46879;45.658;11.814;2022-12-07T12:22:40;6.00;;;4.00;;
60999;SDS011;46879;45.658;11.814;2022-12-07T12:32:47;6.30;;;3.67;;
60999;SDS011;46879;45.658;11.814;2022-12-07T12:37:48;5.75;;;3.40;;
60999;SDS011;46879;45.658;11.814;2022-12-07T12:42:55;5.15;;;3.90;;
60999;SDS011;46879;45.658;11.814;2022-12-07T12:53:39;4.40;;;3.45;;
60999;SDS011;46879;45.658;11.814;2022-12-07T12:58:41;3.90;;;3.03;;
60999;SDS011;46879;45.658;11.814;2022-12-07T13:03:53;6.00;;;3.35;;
60999;SDS011;46879;45.658;11.814;2022-12-07T13:08:56;6.10;;;3.80;;
60999;SDS011;46879;45.658;11.814;2022-12-07T13:24:43;3.40;;;3.10;;
60999;SDS011;46879;45.658;11.814;2022-12-07T13:29:43;6.65;;;3.40;;
60999;SDS011;46879;45.658;11.814;2022-12-07T13:34:44;3.83;;;3.20;;
60999;SDS011;46879;45.658;11.814;2022-12-07T13:39:47;4.03;;;3.05;;
60999;SDS011;46879;45.658;11.814;2022-12-07T13:44:51;3.85;;;3.33;;
60999;SDS011;46879;45.658;11.814;2022-12-07T13:49:55;5.20;;;3.40;;
60999;SDS011;46879;45.658;11.814;2022-12-07T13:55:00;6.35;;;3.50;;
60999;SDS011;46879;45.658;11.814;2022-12-07T14:00:13;4.53;;;3.53;;
60999;SDS011;46879;45.658;11.814;2022-12-07T14:10:37;9.75;;;3.15;;
60999;SDS011;46879;45.658;11.814;2022-12-07T14:15:41;5.05;;;3.00;;
60999;SDS011;46879;45.658;11.814;2022-12-07T14:20:41;5.07;;;3.10;;
60999;SDS011;46879;45.658;11.814;2022-12-07T14:25:49;8.38;;;3.63;;
60999;SDS011;46879;45.658;11.814;2022-12-07T14:30:52;5.32;;;2.88;;
60999;SDS011;46879;45.658;11.814;2022-12-07T14:35:55;3.25;;;2.70;;
60999;SDS011;46879;45.658;11.814;2022-12-07T14:40:57;3.15;;;2.75;;
60999;SDS011;46879;45.658;11.814;2022-12-07T14:46:18;6.07;;;3.20;;
60999;SDS011;46879;45.658;11.814;2022-12-07T14:51:18;3.15;;;2.85;;
60999;SDS011;46879;45.658;11.814;2022-12-07T14:56:19;3.53;;;2.75;;
60999;SDS011;46879;45.658;11.814;2022-12-07T15:01:19;4.47;;;2.72;;
60999;SDS011;46879;45.658;11.814;2022-12-07T15:06:20;6.20;;;2.90;;
60999;SDS011;46879;45.658;11.814;2022-12-07T15:11:21;4.80;;;2.90;;
60999;SDS011;46879;45.658;11.814;2022-12-07T15:16:21;3.88;;;2.70;;
60999;SDS011;46879;45.658;11.814;2022-12-07T15:21:22;3.75;;;2.90;;
60999;SDS011;46879;45.658;11.814;2022-12-07T15:26:22;7.18;;;2.90;;
60999;SDS011;46879;45.658;11.814;2022-12-07T15:31:23;4.85;;;2.83;;
60999;SDS011;46879;45.658;11.814;2022-12-07T15:36:26;3.10;;;2.67;;
60999;SDS011;46879;45.658;11.814;2022-12-07T15:41:29;3.65;;;2.65;;
60999;SDS011;46879;45.658;11.814;2022-12-07T15:46:33;4.03;;;2.70;;
60999;SDS011;46879;45.658;11.814;2022-12-07T15:51:37;3.55;;;2.88;;
60999;SDS011;46879;45.658;11.814;2022-12-07T15:56:37;4.82;;;2.83;;
60999;SDS011;46879;45.658;11.814;2022-12-07T16:01:38;3.15;;;2.85;;
60999;SDS011;46879;45.658;11.814;2022-12-07T16:06:39;6.00;;;3.05;;
60999;SDS011;46879;45.658;11.814;2022-12-07T16:11:39;4.40;;;3.17;;
60999;SDS011;46879;45.658;11.814;2022-12-07T16:16:40;3.05;;;2.75;;
60999;SDS011;46879;45.658;11.814;2022-12-07T16:21:41;4.20;;;2.55;;
60999;SDS011;46879;45.658;11.814;2022-12-07T16:26:42;3.38;;;2.92;;
60999;SDS011;46879;45.658;11.814;2022-12-07T16:31:44;3.45;;;2.65;;
60999;SDS011;46879;45.658;11.814;2022-12-07T16:36:45;5.63;;;2.97;;
60999;SDS011;46879;45.658;11.814;2022-12-07T16:41:45;3.65;;;2.92;;
60999;SDS011;46879;45.658;11.814;2022-12-07T16:46:46;3.55;;;2.60;;
60999;SDS011;46879;45.658;11.814;2022-12-07T16:51:49;4.90;;;2.70;;
60999;SDS011;46879;45.658;11.814;2022-12-07T16:56:53;3.88;;;3.17;;
60999;SDS011;46879;45.658;11.814;2022-12-07T17:01:54;3.67;;;3.00;;
60999;SDS011;46879;45.658;11.814;2022-12-07T17:06:54;5.20;;;2.60;;
60999;SDS011;46879;45.658;11.814;2022-12-07T17:11:55;3.50;;;3.08;;
60999;SDS011;46879;45.658;11.814;2022-12-07T17:16:55;4.47;;;2.85;;
60999;SDS011;46879;45.658;11.814;2022-12-07T17:21:56;3.88;;;2.80;;
60999;SDS011;46879;45.658;11.814;2022-12-07T17:26:56;3.28;;;2.90;;
60999;SDS011;46879;45.658;11.814;2022-12-07T17:31:57;3.22;;;2.90;;
60999;SDS011;46879;45.658;11.814;2022-12-07T17:36:58;3.13;;;2.70;;
60999;SDS011;46879;45.658;11.814;2022-12-07T17:41:58;7.15;;;3.03;;
60999;SDS011;46879;45.658;11.814;2022-12-07T17:47:17;4.93;;;2.97;;
60999;SDS011;46879;45.658;11.814;2022-12-07T17:52:20;4.13;;;2.58;;
60999;SDS011;46879;45.658;11.814;2022-12-07T17:57:40;3.53;;;2.63;;
60999;SDS011;46879;45.658;11.814;2022-12-07T18:02:40;4.18;;;3.10;;
60999;SDS011;46879;45.658;11.814;2022-12-07T18:07:41;5.20;;;3.22;;
60999;SDS011;46879;45.658;11.814;2022-12-07T18:12:42;3.83;;;2.95;;
60999;SDS011;46879;45.658;11.814;2022-12-07T18:17:42;5.25;;;3.17;;
60999;SDS011;46879;45.658;11.814;2022-12-07T18:22:43;7.00;;;3.10;;
60999;SDS011;46879;45.658;11.814;2022-12-07T18:27:43;4.40;;;3.40;;
60999;SDS011;46879;45.658;11.814;2022-12-07T18:32:44;3.42;;;3.00;;
60999;SDS011;46879;45.658;11.814;2022-12-07T18:37:44;6.40;;;3.80;;
60999;SDS011;46879;45.658;11.814;2022-12-07T18:42:45;4.70;;;3.58;;
60999;SDS011;46879;45.658;11.814;2022-12-07T18:47:45;4.50;;;3.35;;
60999;SDS011;46879;45.658;11.814;2022-12-07T18:52:46;5.18;;;3.75;;
60999;SDS011;46879;45.658;11.814;2022-12-07T18:57:47;4.35;;;3.22;;
60999;SDS011;46879;45.658;11.814;2022-12-07T19:02:51;4.40;;;3.55;;
60999;SDS011;46879;45.658;11.814;2022-12-07T19:07:53;7.53;;;3.35;;
60999;SDS011;46879;45.658;11.814;2022-12-07T19:12:54;4.43;;;3.42;;
60999;SDS011;46879;45.658;11.814;2022-12-07T19:17:55;8.07;;;3.50;;
60999;SDS011;46879;45.658;11.814;2022-12-07T19:22:55;7.55;;;3.90;;
60999;SDS011;46879;45.658;11.814;2022-12-07T19:27:56;5.38;;;3.90;;
60999;SDS011;46879;45.658;11.814;2022-12-07T19:32:56;7.10;;;4.15;;
60999;SDS011;46879;45.658;11.814;2022-12-07T19:37:57;8.13;;;3.90;;
60999;SDS011;46879;45.658;11.814;2022-12-07T19:42:58;6.20;;;4.45;;
60999;SDS011;46879;45.658;11.814;2022-12-07T19:47:58;6.53;;;4.20;;
60999;SDS011;46879;45.658;11.814;2022-12-07T19:52:59;8.45;;;4.60;;
60999;SDS011;46879;45.658;11.814;2022-12-07T19:57:59;22.25;;;5.43;;
60999;SDS011;46879;45.658;11.814;2022-12-07T20:03:00;10.95;;;5.55;;
60999;SDS011;46879;45.658;11.814;2022-12-07T20:08:00;9.73;;;5.85;;
60999;SDS011;46879;45.658;11.814;2022-12-07T20:13:01;8.60;;;5.22;;
60999;SDS011;46879;45.658;11.814;2022-12-07T20:23:27;19.23;;;5.15;;
60999;SDS011;46879;45.658;11.814;2022-12-07T20:28:28;11.65;;;5.78;;
60999;SDS011;46879;45.658;11.814;2022-12-07T20:33:29;9.43;;;5.05;;
60999;SDS011;46879;45.658;11.814;2022-12-07T20:38:30;11.93;;;6.00;;
60999;SDS011;46879;45.658;11.814;2022-12-07T20:43:32;14.65;;;5.95;;
60999;SDS011;46879;45.658;11.814;2022-12-07T20:48:33;11.35;;;6.22;;
60999;SDS011;46879;45.658;11.814;2022-12-07T20:53:34;9.93;;;5.55;;
60999;SDS011;46879;45.658;11.814;2022-12-07T20:58:34;8.65;;;5.32;;
60999;SDS011;46879;45.658;11.814;2022-12-07T21:03:35;8.82;;;5.90;;
60999;SDS011;46879;45.658;11.814;2022-12-07T21:08:36;13.35;;;5.82;;
60999;SDS011;46879;45.658;11.814;2022-12-07T21:13:36;11.63;;;5.57;;
60999;SDS011;46879;45.658;11.814;2022-12-07T21:18:37;20.73;;;6.15;;
60999;SDS011;46879;45.658;11.814;2022-12-07T21:23:39;14.18;;;5.75;;
60999;SDS011;46879;45.658;11.814;2022-12-07T21:28:39;10.60;;;5.32;;
60999;SDS011;46879;45.658;11.814;2022-12-07T21:33:40;9.80;;;4.85;;
60999;SDS011;46879;45.658;11.814;2022-12-07T21:38:43;10.02;;;5.72;;
60999;SDS011;46879;45.658;11.814;2022-12-07T21:43:43;9.82;;;5.63;;
60999;SDS011;46879;45.658;11.814;2022-12-07T21:48:48;10.27;;;5.03;;
60999;SDS011;46879;45.658;11.814;2022-12-07T21:53:54;10.25;;;5.00;;
60999;SDS011;46879;45.658;11.814;2022-12-07T21:59:06;7.82;;;5.13;;
60999;SDS011;46879;45.658;11.814;2022-12-07T22:04:11;10.43;;;5.22;;
60999;SDS011;46879;45.658;11.814;2022-12-07T22:09:16;11.05;;;4.60;;
60999;SDS011;46879;45.658;11.814;2022-12-07T22:14:17;10.50;;;5.25;;
60999;SDS011;46879;45.658;11.814;2022-12-07T22:19:37;9.90;;;5.20;;
60999;SDS011;46879;45.658;11.814;2022-12-07T22:24:37;7.20;;;4.65;;
60999;SDS011;46879;45.658;11.814;2022-12-07T22:29:38;9.05;;;4.65;;
60999;SDS011;46879;45.658;11.814;2022-12-07T22:34:39;9.45;;;4.65;;
60999;SDS011;46879;45.658;11.814;2022-12-07T22:39:39;6.65;;;4.75;;
60999;SDS011;46879;45.658;11.814;2022-12-07T22:44:40;7.72;;;4.63;;
60999;SDS011;46879;45.658;11.814;2022-12-07T22:49:42;9.50;;;5.10;;
60999;SDS011;46879;45.658;11.814;2022-12-07T22:54:43;9.48;;;4.38;;
60999;SDS011;46879;45.658;11.814;2022-12-07T22:59:44;9.23;;;4.82;;
60999;SDS011;46879;45.658;11.814;2022-12-07T23:04:44;6.03;;;4.50;;
60999;SDS011;46879;45.658;11.814;2022-12-07T23:09:45;6.32;;;4.57;;
60999;SDS011;46879;45.658;11.814;2022-12-07T23:14:45;9.13;;;4.15;;
60999;SDS011;46879;45.658;11.814;2022-12-07T23:19:46;9.45;;;4.63;;
60999;SDS011;46879;45.658;11.814;2022-12-07T23:24:46;6.43;;;4.15;;
60999;SDS011;46879;45.658;11.814;2022-12-07T23:29:47;7.22;;;4.55;;
60999;SDS011;46879;45.658;11.814;2022-12-07T23:34:47;10.88;;;4.78;;
60999;SDS011;46879;45.658;11.814;2022-12-07T23:39:48;6.88;;;3.67;;
60999;SDS011;46879;45.658;11.814;2022-12-07T23:44:49;5.70;;;3.67;;
60999;SDS011;46879;45.658;11.814;2022-12-07T23:49:49;7.47;;;4.75;;
60999;SDS011;46879;45.658;11.814;2022-12-07T23:54:50;7.60;;;4.10;;
60999;SDS011;46879;45.658;11.814;2022-12-07T23:59:50;7.13;;;3.90;;
